createdAt,value
2019-05-16T00:00:21.814Z,8.78
2019-05-16T00:01:21.796Z,8.65
2019-05-16T00:02:21.788Z,8.71
2019-05-16T00:03:21.781Z,8.63
2019-05-16T00:04:21.775Z,8.72
2019-05-16T00:05:21.778Z,8.54
2019-05-16T00:06:21.758Z,8.58
2019-05-16T00:07:21.742Z,8.58
2019-05-16T00:08:21.721Z,8.54
2019-05-16T00:09:21.719Z,8.58
2019-05-16T00:10:21.719Z,8.55
2019-05-16T00:11:21.704Z,8.60
2019-05-16T00:12:21.669Z,8.63
2019-05-16T00:13:21.669Z,8.51
2019-05-16T00:14:21.655Z,8.54
2019-05-16T00:15:21.656Z,8.39
2019-05-16T00:16:21.645Z,8.45
2019-05-16T00:17:21.629Z,8.40
2019-05-16T00:18:21.626Z,8.42
2019-05-16T00:19:21.607Z,8.32
2019-05-16T00:20:21.616Z,8.39
2019-05-16T00:21:21.586Z,8.30
2019-05-16T00:22:21.570Z,8.28
2019-05-16T00:23:21.554Z,8.21
2019-05-16T00:24:21.556Z,8.17
2019-05-16T00:25:21.766Z,8.14
2019-05-16T00:26:21.525Z,8.21
2019-05-16T00:27:21.507Z,8.17
2019-05-16T00:28:21.503Z,8.08
2019-05-16T00:29:21.492Z,8.08
2019-05-16T00:30:21.499Z,8.14
2019-05-16T00:31:21.474Z,8.11
2019-05-16T00:32:21.468Z,8.11
2019-05-16T00:33:21.451Z,8.07
2019-05-16T00:34:21.438Z,8.10
2019-05-16T00:35:21.437Z,8.15
2019-05-16T00:36:21.447Z,8.07
2019-05-16T00:37:23.157Z,8.03
2019-05-16T00:38:21.409Z,8.11
2019-05-16T00:39:21.393Z,8.08
2019-05-16T00:40:21.378Z,8.07
2019-05-16T00:41:21.362Z,8.03
2019-05-16T00:42:21.372Z,8.03
2019-05-16T00:43:22.286Z,8.08
2019-05-16T00:44:21.374Z,7.97
2019-05-16T00:45:21.322Z,8.02
2019-05-16T00:46:21.305Z,8.00
2019-05-16T00:47:21.309Z,8.02
2019-05-16T00:48:21.289Z,7.99
2019-05-16T00:49:21.292Z,8.00
2019-05-16T00:50:21.287Z,7.99
2019-05-16T00:51:21.278Z,7.99
2019-05-16T00:52:21.240Z,8.00
2019-05-16T00:53:21.243Z,8.03
2019-05-16T00:54:21.211Z,7.97
2019-05-16T00:55:21.225Z,7.96
2019-05-16T00:56:21.232Z,7.96
2019-05-16T00:57:21.225Z,7.94
2019-05-16T00:58:21.172Z,8.03
2019-05-16T00:59:21.170Z,8.00
2019-05-16T01:00:21.194Z,7.97
2019-05-16T01:01:21.144Z,7.92
2019-05-16T01:02:21.166Z,7.97
2019-05-16T01:03:21.124Z,7.97
2019-05-16T01:04:21.111Z,7.97
2019-05-16T01:05:21.114Z,7.96
2019-05-16T01:06:23.021Z,7.87
2019-05-16T01:07:21.101Z,7.92
2019-05-16T01:08:21.097Z,7.94
2019-05-16T01:09:21.069Z,7.87
2019-05-16T01:10:21.277Z,7.94
2019-05-16T01:11:21.062Z,7.93
2019-05-16T01:12:21.748Z,7.97
2019-05-16T01:13:21.028Z,7.96
2019-05-16T01:14:21.049Z,7.84
2019-05-16T01:15:21.021Z,7.90
2019-05-16T01:16:20.979Z,7.87
2019-05-16T01:17:20.969Z,7.96
2019-05-16T01:18:20.969Z,7.90
2019-05-16T01:19:20.973Z,7.92
2019-05-16T01:20:20.951Z,7.90
2019-05-16T01:21:20.933Z,7.89
2019-05-16T01:22:20.925Z,7.84
2019-05-16T01:23:20.914Z,7.90
2019-05-16T01:24:20.883Z,7.87
2019-05-16T01:25:20.910Z,7.94
2019-05-16T01:26:20.866Z,7.90
2019-05-16T01:27:20.851Z,7.92
2019-05-16T01:28:20.853Z,7.84
2019-05-16T01:29:20.858Z,7.85
2019-05-16T01:30:20.844Z,7.77
2019-05-16T01:31:20.828Z,7.85
2019-05-16T01:32:20.810Z,7.81
2019-05-16T01:33:20.801Z,7.81
2019-05-16T01:34:20.782Z,7.85
2019-05-16T01:35:20.784Z,7.89
2019-05-16T01:36:33.380Z,7.92
2019-05-16T01:37:21.755Z,7.87
2019-05-16T01:38:20.751Z,7.85
2019-05-16T01:39:20.724Z,7.87
2019-05-16T01:40:20.785Z,7.77
2019-05-16T01:41:20.717Z,7.92
2019-05-16T01:42:20.730Z,7.89
2019-05-16T01:43:20.698Z,7.90
2019-05-16T01:44:20.698Z,7.85
2019-05-16T01:45:20.669Z,7.87
2019-05-16T01:46:20.661Z,7.84
2019-05-16T01:47:20.648Z,7.82
2019-05-16T01:48:20.648Z,7.81
2019-05-16T01:49:20.626Z,7.84
2019-05-16T01:50:20.639Z,7.81
2019-05-16T01:51:20.590Z,7.82
2019-05-16T01:52:20.592Z,7.81
2019-05-16T01:53:20.611Z,7.78
2019-05-16T01:54:20.587Z,7.79
2019-05-16T01:55:20.610Z,7.82
2019-05-16T01:56:20.554Z,7.81
2019-05-16T01:57:20.553Z,7.84
2019-05-16T01:58:20.530Z,7.84
2019-05-16T01:59:20.539Z,7.81
2019-05-16T02:00:24.720Z,7.81
2019-05-16T02:01:21.502Z,7.84
2019-05-16T02:02:20.470Z,7.87
2019-05-16T02:03:21.257Z,7.85
2019-05-16T02:04:20.466Z,7.87
2019-05-16T02:05:20.456Z,7.87
2019-05-16T02:06:20.448Z,7.90
2019-05-16T02:07:20.414Z,7.89
2019-05-16T02:08:20.419Z,7.90
2019-05-16T02:09:21.190Z,7.84
2019-05-16T02:10:20.394Z,7.90
2019-05-16T02:11:20.374Z,7.84
2019-05-16T02:12:20.359Z,7.90
2019-05-16T02:13:23.164Z,7.85
2019-05-16T02:14:20.360Z,7.89
2019-05-16T02:15:20.365Z,7.85
2019-05-16T02:16:20.313Z,7.89
2019-05-16T02:17:20.313Z,7.89
2019-05-16T02:18:20.296Z,8.00
2019-05-16T02:19:20.296Z,7.84
2019-05-16T02:20:20.281Z,7.93
2019-05-16T02:21:20.281Z,7.92
2019-05-16T02:22:20.249Z,7.92
2019-05-16T02:23:20.246Z,7.94
2019-05-16T02:24:20.235Z,7.89
2019-05-16T02:25:20.294Z,7.97
2019-05-16T02:26:20.209Z,7.96
2019-05-16T02:27:20.202Z,7.99
2019-05-16T02:28:23.700Z,7.96
2019-05-16T02:29:21.168Z,7.97
2019-05-16T02:30:21.731Z,7.94
2019-05-16T02:31:22.750Z,7.94
2019-05-16T02:32:22.293Z,7.92
2019-05-16T02:33:21.478Z,7.89
2019-05-16T02:34:21.825Z,7.92
2019-05-16T02:35:21.029Z,7.92
2019-05-16T02:36:21.611Z,7.92
2019-05-16T02:37:29.217Z,7.93
2019-05-16T02:38:21.493Z,7.92
2019-05-16T02:39:21.200Z,7.94
2019-05-16T02:40:21.011Z,7.96
2019-05-16T02:41:21.600Z,7.89
2019-05-16T02:42:21.217Z,7.93
2019-05-16T02:43:25.363Z,7.94
2019-05-16T02:44:24.649Z,7.90
2019-05-16T02:45:23.886Z,7.97
2019-05-16T02:46:21.730Z,7.97
2019-05-16T02:47:20.967Z,7.94
2019-05-16T02:48:21.285Z,7.93
2019-05-16T02:49:21.607Z,7.96
2019-05-16T02:50:22.353Z,7.89
2019-05-16T02:51:21.193Z,7.96
2019-05-16T02:52:21.705Z,7.94
2019-05-16T02:53:22.399Z,7.92
2019-05-16T02:54:21.758Z,7.92
2019-05-16T02:55:21.695Z,7.97
2019-05-16T02:56:21.125Z,8.00
2019-05-16T02:57:21.321Z,7.96
2019-05-16T02:58:23.227Z,7.94
2019-05-16T02:59:20.608Z,7.97
2019-05-16T03:00:20.954Z,7.96
2019-05-16T03:01:21.660Z,7.94
2019-05-16T03:02:20.504Z,7.94
2019-05-16T03:03:21.349Z,7.94
2019-05-16T03:04:21.341Z,7.93
2019-05-16T03:05:20.811Z,7.93
2019-05-16T03:06:21.118Z,7.97
2019-05-16T03:07:36.098Z,7.90
2019-05-16T03:08:21.303Z,7.97
2019-05-16T03:09:21.391Z,7.90
2019-05-16T03:10:20.356Z,7.92
2019-05-16T03:11:21.049Z,7.99
2019-05-16T03:12:21.145Z,7.97
2019-05-16T03:13:21.957Z,7.90
2019-05-16T03:14:21.306Z,7.89
2019-05-16T03:15:21.779Z,7.96
2019-05-16T03:16:22.264Z,7.99
2019-05-16T03:17:21.413Z,7.94
2019-05-16T03:18:21.413Z,8.00
2019-05-16T03:19:21.582Z,7.94
2019-05-16T03:20:21.187Z,7.99
2019-05-16T03:21:21.660Z,7.90
2019-05-16T03:22:21.893Z,8.03
2019-05-16T03:23:21.832Z,7.93
2019-05-16T03:24:20.560Z,7.97
2019-05-16T03:25:22.256Z,7.94
2019-05-16T03:26:20.996Z,7.99
2019-05-16T03:27:21.540Z,7.92
2019-05-16T03:28:22.166Z,7.94
2019-05-16T03:29:21.799Z,7.94
2019-05-16T03:30:23.590Z,7.97
2019-05-16T03:31:24.616Z,7.99
2019-05-16T03:32:24.084Z,7.96
2019-05-16T03:33:30.230Z,7.96
2019-05-16T03:34:25.603Z,7.94
2019-05-16T03:35:24.751Z,7.93
2019-05-16T03:36:24.857Z,7.99
2019-05-16T03:37:24.891Z,7.90
2019-05-16T03:38:21.250Z,8.02
2019-05-16T03:39:21.210Z,7.99
2019-05-16T03:40:21.413Z,7.96
2019-05-16T03:41:21.582Z,8.03
2019-05-16T03:42:20.515Z,8.08
2019-05-16T03:43:21.806Z,8.03
2019-05-16T03:44:21.037Z,8.11
2019-05-16T03:45:21.209Z,8.04
2019-05-16T03:46:21.444Z,8.12
2019-05-16T03:47:21.940Z,8.11
2019-05-16T03:48:21.373Z,8.12
2019-05-16T03:49:21.145Z,8.03
2019-05-16T03:50:21.761Z,8.12
2019-05-16T03:51:21.549Z,8.20
2019-05-16T03:52:20.775Z,8.10
2019-05-16T03:53:21.134Z,8.21
2019-05-16T03:54:21.118Z,8.11
2019-05-16T03:55:21.367Z,8.15
2019-05-16T03:56:21.958Z,8.11
2019-05-16T03:57:21.276Z,8.12
2019-05-16T03:58:22.462Z,8.07
2019-05-16T03:59:21.578Z,8.08
2019-05-16T04:00:21.154Z,8.10
2019-05-16T04:01:21.054Z,8.10
2019-05-16T04:02:21.610Z,8.15
2019-05-16T04:03:21.228Z,8.14
2019-05-16T04:04:20.903Z,8.11
2019-05-16T04:05:21.110Z,8.14
2019-05-16T04:06:22.014Z,8.10
2019-05-16T04:07:21.412Z,8.20
2019-05-16T04:08:23.831Z,8.25
2019-05-16T04:09:21.040Z,8.26
2019-05-16T04:10:21.545Z,8.26
2019-05-16T04:11:23.060Z,8.28
2019-05-16T04:12:21.363Z,8.26
2019-05-16T04:13:21.354Z,8.26
2019-05-16T04:14:21.424Z,8.25
2019-05-16T04:15:21.420Z,8.28
2019-05-16T04:16:20.929Z,8.22
2019-05-16T04:17:21.143Z,8.30
2019-05-16T04:18:22.019Z,8.33
2019-05-16T04:19:21.154Z,8.40
2019-05-16T04:20:21.525Z,8.32
2019-05-16T04:21:21.935Z,8.42
2019-05-16T04:22:21.425Z,8.42
2019-05-16T04:23:20.614Z,8.37
2019-05-16T04:24:21.615Z,8.36
2019-05-16T04:25:21.649Z,8.42
2019-05-16T04:26:21.636Z,8.45
2019-05-16T04:27:21.505Z,8.42
2019-05-16T04:28:21.792Z,8.54
2019-05-16T04:29:20.677Z,8.45
2019-05-16T04:30:21.889Z,8.50
2019-05-16T04:31:22.006Z,8.48
2019-05-16T04:32:20.798Z,8.44
2019-05-16T04:33:21.964Z,8.51
2019-05-16T04:34:20.667Z,8.54
2019-05-16T04:35:21.463Z,8.39
2019-05-16T04:36:21.301Z,8.47
2019-05-16T04:37:21.801Z,8.48
2019-05-16T04:38:31.656Z,8.51
2019-05-16T04:39:20.884Z,8.50
2019-05-16T04:40:21.647Z,8.50
2019-05-16T04:41:21.227Z,8.53
2019-05-16T04:42:21.377Z,8.47
2019-05-16T04:43:21.585Z,8.48
2019-05-16T04:44:21.189Z,8.48
2019-05-16T04:45:21.147Z,8.51
2019-05-16T04:46:21.448Z,8.47
2019-05-16T04:47:21.046Z,8.55
2019-05-16T04:48:21.832Z,8.45
2019-05-16T04:49:21.218Z,8.57
2019-05-16T04:50:21.064Z,8.63
2019-05-16T04:51:21.609Z,8.57
2019-05-16T04:52:21.508Z,8.63
2019-05-16T04:53:20.754Z,8.63
2019-05-16T04:54:21.366Z,8.55
2019-05-16T04:55:21.082Z,8.57
2019-05-16T04:56:21.280Z,8.63
2019-05-16T04:57:20.918Z,8.53
2019-05-16T04:58:22.962Z,8.55
2019-05-16T04:59:20.832Z,8.66
2019-05-16T05:00:21.177Z,8.63
2019-05-16T05:01:21.522Z,8.60
2019-05-16T05:02:21.233Z,8.48
2019-05-16T05:03:20.860Z,8.62
2019-05-16T05:04:21.140Z,8.62
2019-05-16T05:05:21.514Z,8.68
2019-05-16T05:06:20.787Z,8.62
2019-05-16T05:07:20.638Z,8.60
2019-05-16T05:08:21.377Z,8.54
2019-05-16T05:09:20.949Z,8.63
2019-05-16T05:10:20.658Z,8.69
2019-05-16T05:11:21.226Z,8.66
2019-05-16T05:12:20.756Z,8.66
2019-05-16T05:13:21.631Z,8.63
2019-05-16T05:14:21.011Z,8.62
2019-05-16T05:15:21.060Z,8.60
2019-05-16T05:16:20.347Z,8.69
2019-05-16T05:17:20.872Z,8.69
2019-05-16T05:18:21.032Z,8.53
2019-05-16T05:19:20.250Z,8.66
2019-05-16T05:20:20.842Z,8.57
2019-05-16T05:21:20.714Z,8.55
2019-05-16T05:22:19.879Z,8.71
2019-05-16T05:23:20.706Z,8.65
2019-05-16T05:24:19.712Z,8.69
2019-05-16T05:25:20.438Z,8.69
2019-05-16T05:26:20.011Z,8.71
2019-05-16T05:27:19.742Z,8.73
2019-05-16T05:28:20.747Z,8.71
2019-05-16T05:29:20.069Z,8.69
2019-05-16T05:30:19.823Z,8.68
2019-05-16T05:31:23.941Z,8.63
2019-05-16T05:32:20.007Z,8.65
2019-05-16T05:33:20.609Z,8.63
2019-05-16T05:34:19.866Z,8.68
2019-05-16T05:35:20.651Z,8.71
2019-05-16T05:36:20.805Z,8.62
2019-05-16T05:37:20.260Z,8.65
2019-05-16T05:38:20.824Z,8.75
2019-05-16T05:39:20.021Z,8.75
2019-05-16T05:40:20.059Z,8.72
2019-05-16T05:41:19.861Z,8.72
2019-05-16T05:42:19.903Z,8.76
2019-05-16T05:43:18.059Z,8.69
2019-05-16T05:44:20.181Z,8.73
2019-05-16T05:45:20.146Z,8.72
2019-05-16T05:46:20.357Z,8.73
2019-05-16T05:47:19.986Z,8.73
2019-05-16T05:48:17.988Z,8.73
2019-05-16T05:49:20.356Z,8.81
2019-05-16T05:50:20.042Z,8.75
2019-05-16T05:51:17.950Z,8.88
2019-05-16T05:52:20.593Z,8.79
2019-05-16T05:53:20.449Z,8.75
2019-05-16T05:54:20.208Z,8.86
2019-05-16T05:55:19.982Z,8.90
2019-05-16T05:56:19.760Z,8.76
2019-05-16T05:57:20.713Z,8.84
2019-05-16T05:58:20.449Z,8.79
2019-05-16T05:59:19.938Z,8.91
2019-05-16T06:00:20.819Z,8.81
2019-05-16T06:01:20.376Z,8.87
2019-05-16T06:02:20.004Z,8.81
2019-05-16T06:03:21.642Z,8.90
2019-05-16T06:04:19.742Z,8.94
2019-05-16T06:05:19.964Z,8.94
2019-05-16T06:06:17.783Z,9.04
2019-05-16T06:07:17.761Z,9.06
2019-05-16T06:08:19.939Z,9.06
2019-05-16T06:09:26.311Z,9.06
2019-05-16T06:10:19.883Z,9.21
2019-05-16T06:11:20.300Z,9.12
2019-05-16T06:12:17.706Z,9.20
2019-05-16T06:13:20.209Z,9.28
2019-05-16T06:14:17.695Z,9.24
2019-05-16T06:15:20.100Z,9.24
2019-05-16T06:16:20.165Z,9.31
2019-05-16T06:17:19.928Z,9.27
2019-05-16T06:18:19.736Z,9.28
2019-05-16T06:19:17.650Z,9.27
2019-05-16T06:20:20.134Z,9.24
2019-05-16T06:21:20.094Z,9.21
2019-05-16T06:22:17.651Z,9.25
2019-05-16T06:23:20.257Z,9.13
2019-05-16T06:24:19.952Z,9.20
2019-05-16T06:25:17.564Z,9.27
2019-05-16T06:26:20.167Z,9.28
2019-05-16T06:27:17.533Z,9.27
2019-05-16T06:28:20.164Z,9.38
2019-05-16T06:29:17.571Z,9.35
2019-05-16T06:30:17.538Z,9.34
2019-05-16T06:31:17.510Z,9.27
2019-05-16T06:32:19.650Z,9.34
2019-05-16T06:33:19.766Z,9.27
2019-05-16T06:34:17.485Z,9.35
2019-05-16T06:35:17.464Z,9.49
2019-05-16T06:36:17.441Z,9.46
2019-05-16T06:37:17.432Z,9.42
2019-05-16T06:38:17.436Z,9.40
2019-05-16T06:39:19.784Z,9.46
2019-05-16T06:40:17.405Z,9.43
2019-05-16T06:41:19.727Z,9.40
2019-05-16T06:42:17.389Z,9.40
2019-05-16T06:43:17.402Z,9.38
2019-05-16T06:44:17.358Z,9.42
2019-05-16T06:45:17.352Z,9.46
2019-05-16T06:46:17.332Z,9.38
2019-05-16T06:47:20.028Z,9.40
2019-05-16T06:48:20.791Z,9.42
2019-05-16T06:49:19.552Z,9.45
2019-05-16T06:50:17.297Z,9.39
2019-05-16T06:51:19.860Z,9.52
2019-05-16T06:52:19.600Z,9.46
2019-05-16T06:53:17.302Z,9.45
2019-05-16T06:54:17.274Z,9.50
2019-05-16T06:55:17.244Z,9.42
2019-05-16T06:56:19.793Z,9.35
2019-05-16T06:57:17.209Z,9.43
2019-05-16T06:58:17.205Z,9.38
2019-05-16T06:59:17.204Z,9.52
2019-05-16T07:00:17.186Z,9.53
2019-05-16T07:01:17.171Z,9.48
2019-05-16T07:02:27.633Z,9.50
2019-05-16T07:03:20.430Z,9.39
2019-05-16T07:04:17.152Z,9.52
2019-05-16T07:05:17.122Z,9.52
2019-05-16T07:06:37.810Z,9.39
2019-05-16T07:07:20.338Z,9.56
2019-05-16T07:08:17.093Z,9.50
2019-05-16T07:09:17.103Z,9.46
2019-05-16T07:10:17.067Z,9.40
2019-05-16T07:11:17.054Z,9.46
2019-05-16T07:12:17.059Z,9.43
2019-05-16T07:13:19.553Z,9.48
2019-05-16T07:14:17.057Z,9.53
2019-05-16T07:15:17.034Z,9.48
2019-05-16T07:16:16.998Z,9.49
2019-05-16T07:17:16.985Z,9.57
2019-05-16T07:18:16.973Z,9.46
2019-05-16T07:19:16.992Z,9.48
2019-05-16T07:20:16.992Z,9.49
2019-05-16T07:21:16.959Z,9.60
2019-05-16T07:22:16.939Z,9.60
2019-05-16T07:23:16.933Z,9.49
2019-05-16T07:24:17.104Z,9.63
2019-05-16T07:25:16.913Z,9.60
2019-05-16T07:26:16.897Z,9.63
2019-05-16T07:27:16.892Z,9.60
2019-05-16T07:28:16.881Z,9.64
2019-05-16T07:29:16.877Z,9.61
2019-05-16T07:30:16.853Z,9.63
2019-05-16T07:31:19.005Z,9.67
2019-05-16T07:32:19.870Z,9.58
2019-05-16T07:33:16.825Z,9.60
2019-05-16T07:34:16.828Z,9.56
2019-05-16T07:35:16.802Z,9.58
2019-05-16T07:36:16.785Z,9.60
2019-05-16T07:37:16.775Z,9.56
2019-05-16T07:38:16.773Z,9.56
2019-05-16T07:39:16.766Z,9.56
2019-05-16T07:40:23.670Z,9.49
2019-05-16T07:41:19.853Z,9.49
2019-05-16T07:42:16.723Z,9.38
2019-05-16T07:43:16.712Z,9.60
2019-05-16T07:44:16.718Z,9.39
2019-05-16T07:45:16.696Z,9.38
2019-05-16T07:46:16.666Z,9.40
2019-05-16T07:47:16.674Z,9.42
2019-05-16T07:48:16.667Z,9.42
2019-05-16T07:49:16.666Z,9.39
2019-05-16T07:50:16.637Z,9.39
2019-05-16T07:51:16.626Z,9.43
2019-05-16T07:52:16.609Z,9.40
2019-05-16T07:53:16.593Z,9.43
2019-05-16T07:54:16.849Z,9.53
2019-05-16T07:55:16.598Z,9.38
2019-05-16T07:56:16.553Z,9.60
2019-05-16T07:57:20.443Z,9.52
2019-05-16T07:58:21.234Z,9.45
2019-05-16T07:59:16.538Z,9.39
2019-05-16T08:00:16.536Z,9.50
2019-05-16T08:01:16.541Z,9.52
2019-05-16T08:02:16.503Z,9.45
2019-05-16T08:03:16.496Z,9.35
2019-05-16T08:04:16.491Z,9.38
2019-05-16T08:05:16.485Z,9.49
2019-05-16T08:06:16.463Z,9.57
2019-05-16T08:07:16.443Z,9.46
2019-05-16T08:08:16.435Z,9.50
2019-05-16T08:09:16.438Z,9.48
2019-05-16T08:11:17.407Z,9.49
2019-05-16T08:12:22.343Z,9.67
2019-05-16T08:13:18.525Z,9.46
2019-05-16T08:14:16.387Z,9.50
2019-05-16T08:15:16.351Z,9.46
2019-05-16T08:16:16.350Z,9.49
2019-05-16T08:17:16.333Z,9.58
2019-05-16T08:18:16.318Z,9.48
2019-05-16T08:19:16.334Z,9.46
2019-05-16T08:20:16.304Z,9.45
2019-05-16T08:21:16.981Z,9.61
2019-05-16T08:22:16.288Z,9.56
2019-05-16T08:23:16.274Z,9.48
2019-05-16T08:24:16.288Z,9.50
2019-05-16T08:25:16.261Z,9.49
2019-05-16T08:26:16.248Z,9.56
2019-05-16T08:27:16.226Z,9.60
2019-05-16T08:28:16.219Z,9.61
2019-05-16T08:29:16.197Z,9.56
2019-05-16T08:30:16.198Z,9.57
2019-05-16T08:31:16.208Z,9.52
2019-05-16T08:32:16.196Z,9.57
2019-05-16T08:33:16.187Z,9.67
2019-05-16T08:34:16.157Z,9.66
2019-05-16T08:35:16.167Z,9.64
2019-05-16T08:36:16.153Z,9.58
2019-05-16T08:37:33.922Z,9.64
2019-05-16T08:38:21.085Z,9.58
2019-05-16T08:39:16.084Z,9.64
2019-05-16T08:40:16.095Z,9.61
2019-05-16T08:42:17.049Z,9.58
2019-05-16T08:43:16.039Z,9.63
2019-05-16T08:44:16.040Z,9.63
2019-05-16T08:45:16.043Z,9.61
2019-05-16T08:46:16.029Z,9.57
2019-05-16T08:47:16.008Z,9.61
2019-05-16T08:48:15.992Z,9.67
2019-05-16T08:49:15.970Z,9.61
2019-05-16T08:50:05.092Z,9.49
2019-05-16T08:50:15.980Z,9.60
2019-05-16T08:51:15.952Z,9.61
2019-05-16T08:52:15.957Z,9.58
2019-05-16T08:53:15.964Z,9.64
2019-05-16T08:54:15.930Z,9.58
2019-05-16T08:55:15.938Z,9.67
2019-05-16T08:56:15.906Z,9.64
2019-05-16T08:57:27.071Z,9.60
2019-05-16T08:58:16.887Z,9.63
2019-05-16T08:59:15.872Z,9.68
2019-05-16T09:00:15.893Z,9.63
2019-05-16T09:01:15.845Z,9.75
2019-05-16T09:02:15.838Z,9.75
2019-05-16T09:03:15.819Z,9.70
2019-05-16T09:04:15.869Z,9.64
2019-05-16T09:05:15.824Z,9.73
2019-05-16T09:06:15.808Z,9.67
2019-05-16T09:07:15.792Z,9.75
2019-05-16T09:08:15.775Z,9.70
2019-05-16T09:09:29.523Z,9.67
2019-05-16T09:10:34.934Z,9.63
2019-05-16T09:11:31.358Z,9.68
2019-05-16T09:12:17.254Z,9.73
2019-05-16T09:13:17.578Z,9.71
2019-05-16T09:14:17.227Z,9.81
2019-05-16T09:15:17.120Z,9.83
2019-05-16T09:16:18.286Z,9.76
2019-05-16T09:17:18.014Z,9.82
2019-05-16T09:18:17.783Z,9.82
2019-05-16T09:19:16.974Z,9.85
2019-05-16T09:20:17.370Z,9.82
2019-05-16T09:21:18.311Z,9.82
2019-05-16T09:22:17.871Z,9.86
2019-05-16T09:23:17.872Z,9.79
2019-05-16T09:24:17.933Z,9.86
2019-05-16T09:25:18.183Z,9.89
2019-05-16T09:26:18.969Z,9.81
2019-05-16T09:27:17.912Z,9.83
2019-05-16T09:28:16.814Z,9.88
2019-05-16T09:29:16.752Z,9.97
2019-05-16T09:30:17.287Z,9.91
2019-05-16T09:31:17.891Z,9.91
2019-05-16T09:32:27.073Z,9.88
2019-05-16T09:33:17.610Z,9.97
2019-05-16T09:34:17.569Z,10.00
2019-05-16T09:35:17.187Z,9.97
2019-05-16T09:36:17.431Z,9.91
2019-05-16T09:37:17.709Z,9.91
2019-05-16T09:38:20.301Z,9.91
2019-05-16T09:39:17.071Z,9.97
2019-05-16T09:40:17.231Z,9.97
2019-05-16T09:41:16.875Z,10.00
2019-05-16T09:42:17.134Z,9.94
2019-05-16T09:43:17.699Z,10.04
2019-05-16T09:44:18.202Z,10.00
2019-05-16T09:45:17.075Z,10.01
2019-05-16T09:46:17.141Z,10.07
2019-05-16T09:47:17.536Z,10.09
2019-05-16T09:48:18.476Z,10.14
2019-05-16T09:49:22.711Z,10.15
2019-05-16T09:50:17.368Z,10.24
2019-05-16T09:51:17.309Z,10.07
2019-05-16T09:52:16.534Z,10.10
2019-05-16T09:53:17.026Z,10.10
2019-05-16T09:54:16.779Z,10.12
2019-05-16T09:55:17.423Z,10.10
2019-05-16T09:56:16.865Z,10.09
2019-05-16T09:57:17.433Z,10.10
2019-05-16T09:58:17.925Z,10.07
2019-05-16T09:59:17.299Z,10.09
2019-05-16T10:00:17.713Z,10.12
2019-05-16T10:01:17.406Z,10.21
2019-05-16T10:02:17.433Z,10.24
2019-05-16T10:03:17.837Z,10.21
2019-05-16T10:04:17.405Z,10.25
2019-05-16T10:05:16.944Z,10.25
2019-05-16T10:06:19.153Z,10.24
2019-05-16T10:07:17.852Z,10.22
2019-05-16T10:08:17.280Z,10.28
2019-05-16T10:09:17.459Z,10.26
2019-05-16T10:10:17.114Z,10.24
2019-05-16T10:11:18.012Z,10.26
2019-05-16T10:12:16.383Z,10.14
2019-05-16T10:13:18.022Z,10.10
2019-05-16T10:14:17.225Z,10.10
2019-05-16T10:15:17.426Z,10.06
2019-05-16T10:16:16.744Z,10.07
2019-05-16T10:17:17.623Z,10.04
2019-05-16T10:18:16.923Z,10.06
2019-05-16T10:19:16.911Z,10.10
2019-05-16T10:20:16.894Z,10.10
2019-05-16T10:21:17.890Z,10.10
2019-05-16T10:22:17.088Z,10.30
2019-05-16T10:23:17.540Z,10.25
2019-05-16T10:24:14.946Z,10.34
2019-05-16T10:25:19.017Z,10.40
2019-05-16T10:26:17.178Z,10.39
2019-05-16T10:27:16.978Z,10.30
2019-05-16T10:28:17.324Z,10.34
2019-05-16T10:29:18.404Z,10.33
2019-05-16T10:30:17.403Z,10.40
2019-05-16T10:31:17.592Z,10.46
2019-05-16T10:32:16.745Z,10.53
2019-05-16T10:33:18.918Z,10.55
2019-05-16T10:34:17.230Z,10.66
2019-05-16T10:35:14.822Z,10.70
2019-05-16T10:36:17.129Z,10.60
2019-05-16T10:37:17.663Z,10.65
2019-05-16T10:38:14.783Z,10.81
2019-05-16T10:39:14.764Z,10.66
2019-05-16T10:40:14.768Z,10.68
2019-05-16T10:41:14.762Z,10.78
2019-05-16T10:42:25.027Z,10.89
2019-05-16T10:43:17.340Z,10.98
2019-05-16T10:44:17.224Z,11.07
2019-05-16T10:45:16.577Z,11.16
2019-05-16T10:46:17.453Z,11.16
2019-05-16T10:47:17.157Z,11.24
2019-05-16T10:48:17.286Z,11.25
2019-05-16T10:49:16.643Z,11.21
2019-05-16T10:50:16.685Z,11.38
2019-05-16T10:51:16.793Z,11.43
2019-05-16T10:52:16.594Z,11.44
2019-05-16T10:53:33.536Z,11.35
2019-05-16T10:54:18.252Z,11.46
2019-05-16T10:55:17.467Z,11.34
2019-05-16T10:56:14.638Z,11.19
2019-05-16T10:57:14.597Z,11.34
2019-05-16T10:58:31.183Z,11.36
2019-05-16T10:59:53.333Z,11.34
2019-05-16T11:00:34.904Z,11.28
2019-05-16T11:01:26.506Z,11.19
2019-05-16T11:02:16.711Z,11.21
2019-05-16T11:03:16.974Z,11.25
2019-05-16T11:04:26.191Z,11.10
2019-05-16T11:05:28.853Z,11.10
2019-05-16T11:06:25.156Z,11.14
2019-05-16T11:07:15.470Z,11.09
2019-05-16T11:08:14.452Z,11.10
2019-05-16T11:09:17.192Z,11.17
2019-05-16T11:10:14.463Z,11.10
2019-05-16T11:11:14.417Z,11.14
2019-05-16T11:12:19.944Z,11.19
2019-05-16T11:13:17.134Z,11.16
2019-05-16T11:14:17.090Z,11.14
2019-05-16T11:15:17.018Z,11.17
2019-05-16T11:16:14.354Z,11.10
2019-05-16T11:17:14.361Z,11.10
2019-05-16T11:18:14.336Z,11.03
2019-05-16T11:19:21.358Z,10.99
2019-05-16T11:20:19.639Z,11.09
2019-05-16T11:21:14.319Z,11.03
2019-05-16T11:22:14.308Z,11.02
2019-05-16T11:23:14.282Z,11.02
2019-05-16T11:24:14.280Z,10.98
2019-05-16T11:25:24.863Z,10.98
2019-05-16T11:26:15.248Z,10.98
2019-05-16T11:27:14.253Z,10.96
2019-05-16T11:28:17.456Z,10.96
2019-05-16T11:29:16.366Z,10.99
2019-05-16T11:30:14.288Z,10.95
2019-05-16T11:31:14.192Z,10.98
2019-05-16T11:32:14.198Z,11.02
2019-05-16T11:33:17.149Z,11.02
2019-05-16T11:34:14.167Z,11.01
2019-05-16T11:35:16.909Z,11.07
2019-05-16T11:36:16.540Z,10.96
2019-05-16T11:37:14.134Z,10.98
2019-05-16T11:38:14.122Z,10.99
2019-05-16T11:39:14.106Z,11.03
2019-05-16T11:40:14.095Z,11.03
2019-05-16T11:41:16.566Z,11.06
2019-05-16T11:42:14.070Z,11.14
2019-05-16T11:43:18.327Z,11.06
2019-05-16T11:44:17.394Z,11.24
2019-05-16T11:45:16.430Z,11.24
2019-05-16T11:46:14.032Z,11.25
2019-05-16T11:47:16.462Z,11.34
2019-05-16T11:48:14.000Z,11.35
2019-05-16T11:49:16.531Z,11.46
2019-05-16T11:50:13.998Z,11.41
2019-05-16T11:51:13.965Z,11.53
2019-05-16T11:52:14.017Z,11.53
2019-05-16T11:53:13.952Z,11.49
2019-05-16T11:54:13.930Z,11.59
2019-05-16T11:55:13.931Z,11.70
2019-05-16T11:56:13.941Z,11.80
2019-05-16T11:57:13.916Z,11.83
2019-05-16T11:58:13.897Z,11.93
2019-05-16T11:59:13.886Z,12.04
2019-05-16T12:00:13.870Z,11.99
2019-05-16T12:01:16.386Z,12.15
2019-05-16T12:02:13.861Z,12.09
2019-05-16T12:03:13.832Z,12.13
2019-05-16T12:04:13.826Z,12.12
2019-05-16T12:05:13.817Z,12.15
2019-05-16T12:06:13.811Z,12.19
2019-05-16T12:07:13.812Z,12.11
2019-05-16T12:08:13.772Z,12.20
2019-05-16T12:09:13.756Z,12.23
2019-05-16T12:10:16.016Z,12.13
2019-05-16T12:11:13.756Z,12.13
2019-05-16T12:12:16.401Z,12.13
2019-05-16T12:13:27.258Z,12.16
2019-05-16T12:14:16.607Z,12.19
2019-05-16T12:15:16.791Z,12.05
2019-05-16T12:16:16.390Z,12.12
2019-05-16T12:17:13.696Z,12.15
2019-05-16T12:18:13.679Z,12.15
2019-05-16T12:19:13.670Z,12.13
2019-05-16T12:20:13.642Z,12.11
2019-05-16T12:21:13.632Z,12.13
2019-05-16T12:22:13.646Z,12.11
2019-05-16T12:23:13.614Z,12.04
2019-05-16T12:24:29.105Z,12.16
2019-05-16T12:25:16.612Z,12.02
2019-05-16T12:26:13.588Z,12.08
2019-05-16T12:27:13.581Z,12.08
2019-05-16T12:28:13.561Z,12.12
2019-05-16T12:29:13.552Z,12.16
2019-05-16T12:30:14.192Z,12.15
2019-05-16T12:31:13.535Z,12.16
2019-05-16T12:32:13.530Z,12.13
2019-05-16T12:33:13.528Z,12.12
2019-05-16T12:34:13.492Z,12.16
2019-05-16T12:35:13.478Z,12.30
2019-05-16T12:36:13.474Z,12.38
2019-05-16T12:37:13.465Z,12.49
2019-05-16T12:38:13.464Z,12.51
2019-05-16T12:39:13.437Z,12.49
2019-05-16T12:40:13.422Z,12.46
2019-05-16T12:41:13.416Z,12.54
2019-05-16T12:42:13.413Z,12.39
2019-05-16T12:43:13.430Z,12.34
2019-05-16T12:44:13.374Z,12.42
2019-05-16T12:45:13.369Z,12.39
2019-05-16T12:46:13.357Z,12.37
2019-05-16T12:47:13.343Z,12.37
2019-05-16T12:48:16.656Z,12.29
2019-05-16T12:49:14.329Z,12.13
2019-05-16T12:50:13.325Z,12.20
2019-05-16T12:51:13.310Z,12.24
2019-05-16T12:52:13.288Z,12.27
2019-05-16T12:53:13.284Z,12.33
2019-05-16T12:54:13.266Z,12.44
2019-05-16T12:55:13.259Z,12.34
2019-05-16T12:56:13.258Z,12.39
2019-05-16T12:57:13.246Z,12.38
2019-05-16T12:58:14.164Z,12.30
2019-05-16T12:59:20.590Z,12.41
2019-05-16T13:00:16.359Z,12.42
2019-05-16T13:01:16.374Z,12.49
2019-05-16T13:02:14.197Z,12.38
2019-05-16T13:03:13.211Z,12.44
2019-05-16T13:04:13.162Z,12.39
2019-05-16T13:05:13.168Z,12.56
2019-05-16T13:06:13.136Z,12.42
2019-05-16T13:07:13.142Z,12.49
2019-05-16T13:08:13.142Z,12.52
2019-05-16T13:09:13.121Z,12.49
2019-05-16T13:10:13.088Z,12.49
2019-05-16T13:11:13.095Z,12.48
2019-05-16T13:12:13.065Z,12.54